Time;durP1;ratioP1;P1;durP2;ratioP2;P2;SDS_P1;SDS_P2;PMS_P1;PMS_P2;Temp;Humidity;BMP_temperature;BMP_pressure;BME280_temperature;BME280_humidity;BME280_pressure;Samples;Min_cycle;Max_cycle;Signal;HPM_P1;HPM_P2
2023/06/06 00:00:59;;;;;;;41.58;30.13;;;;;;;;;;5015089;28;20076;-75
2023/06/06 00:03:26;;;;;;;39.80;30.13;;;;;;;;;;5049481;28;20135;-75
2023/06/06 00:05:53;;;;;;;40.78;27.60;;;;;;;;;;5031151;28;20091;-76
2023/06/06 00:08:23;;;;;;;28.15;19.55;;;;;;;;;;5049268;28;20049;-74
2023/06/06 00:10:50;;;;;;;19.85;16.38;;;;;;;;;;5017912;28;20460;-74
2023/06/06 00:13:18;;;;;;;26.30;17.92;;;;;;;;;;5052705;28;20052;-75
2023/06/06 00:15:44;;;;;;;27.05;16.73;;;;;;;;;;5052770;28;20087;-74
2023/06/06 00:18:11;;;;;;;19.00;11.45;;;;;;;;;;5052751;28;20520;-75
2023/06/06 00:20:38;;;;;;;13.55;9.55;;;;;;;;;;5035122;28;20398;-75
2023/06/06 00:23:07;;;;;;;12.73;8.43;;;;;;;;;;5034739;28;20045;-73
2023/06/06 00:25:34;;;;;;;7.85;7.05;;;;;;;;;;5034959;28;20612;-75
2023/06/06 00:28:00;;;;;;;8.52;6.90;;;;;;;;;;5052524;28;20547;-75
2023/06/06 00:30:26;;;;;;;8.27;7.32;;;;;;;;;;5052551;28;20049;-75
2023/06/06 00:32:53;;;;;;;10.20;6.53;;;;;;;;;;5052630;28;20044;-75
2023/06/06 00:35:19;;;;;;;10.73;7.32;;;;;;;;;;5052737;28;20041;-75
2023/06/06 00:37:45;;;;;;;10.65;6.13;;;;;;;;;;5052229;28;20049;-75
2023/06/06 00:40:13;;;;;;;10.75;5.88;;;;;;;;;;5052153;28;20520;-73
2023/06/06 00:42:39;;;;;;;12.65;7.28;;;;;;;;;;5018147;28;20045;-75
2023/06/06 00:45:06;;;;;;;10.25;6.30;;;;;;;;;;5034310;28;20497;-74
2023/06/06 00:47:33;;;;;;;9.93;5.45;;;;;;;;;;5052484;28;20041;-74
2023/06/06 00:49:59;;;;;;;7.90;5.63;;;;;;;;;;5034592;28;20033;-74
2023/06/06 00:52:25;;;;;;;10.05;5.68;;;;;;;;;;5018190;28;20043;-74
2023/06/06 00:54:51;;;;;;;6.18;4.90;;;;;;;;;;5052260;28;20120;-73
2023/06/06 00:57:18;;;;;;;11.27;5.20;;;;;;;;;;5033818;28;20057;-74
2023/06/06 00:59:44;;;;;;;9.70;5.20;;;;;;;;;;5052210;28;20130;-75
2023/06/06 01:02:14;;;;;;;6.53;5.10;;;;;;;;;;5034451;28;20502;-75
2023/06/06 01:04:40;;;;;;;5.70;4.60;;;;;;;;;;5034333;28;20304;-74
2023/06/06 01:07:07;;;;;;;8.80;4.63;;;;;;;;;;5051773;28;20543;-74
2023/06/06 01:09:33;;;;;;;9.98;5.72;;;;;;;;;;5051732;28;20075;-75
2023/06/06 01:12:02;;;;;;;5.35;4.43;;;;;;;;;;5051673;28;20053;-73
2023/06/06 01:14:35;;;;;;;7.28;4.65;;;;;;;;;;5051966;28;20045;-75
2023/06/06 01:17:02;;;;;;;6.13;4.85;;;;;;;;;;5051794;28;20075;-75
2023/06/06 01:19:29;;;;;;;11.38;3.92;;;;;;;;;;5051964;28;20045;-75
2023/06/06 01:21:55;;;;;;;5.57;4.20;;;;;;;;;;5051918;28;20037;-74
2023/06/06 01:24:22;;;;;;;8.75;4.50;;;;;;;;;;5017845;28;20064;-75
2023/06/06 01:26:50;;;;;;;9.23;4.40;;;;;;;;;;5042244;28;20423;-75
2023/06/06 01:29:17;;;;;;;6.65;4.38;;;;;;;;;;5037230;28;20036;-74
2023/06/06 01:31:47;;;;;;;5.97;4.15;;;;;;;;;;5051609;28;20055;-75
2023/06/06 01:34:20;;;;;;;8.00;4.07;;;;;;;;;;5033621;28;20037;-74
2023/06/06 01:36:53;;;;;;;4.65;4.25;;;;;;;;;;5051540;28;20040;-74
2023/06/06 01:39:19;;;;;;;6.88;4.13;;;;;;;;;;5051206;28;20071;-75
2023/06/06 01:41:45;;;;;;;5.93;3.92;;;;;;;;;;5033407;28;20045;-75
2023/06/06 01:44:13;;;;;;;5.32;4.80;;;;;;;;;;5017152;28;20045;-75
2023/06/06 01:46:39;;;;;;;7.45;4.10;;;;;;;;;;5033237;28;20060;-75
2023/06/06 01:49:06;;;;;;;6.30;4.43;;;;;;;;;;5033094;28;20513;-74
2023/06/06 01:51:33;;;;;;;7.95;4.38;;;;;;;;;;5033854;28;20053;-75
2023/06/06 01:53:59;;;;;;;10.25;4.63;;;;;;;;;;5051101;28;20041;-75
2023/06/06 01:56:28;;;;;;;4.32;3.85;;;;;;;;;;5034358;28;20049;-75
2023/06/06 01:58:54;;;;;;;4.10;3.78;;;;;;;;;;5039044;28;20055;-75
2023/06/06 02:01:20;;;;;;;12.70;4.53;;;;;;;;;;5046360;28;20041;-74
2023/06/06 02:03:46;;;;;;;5.68;4.28;;;;;;;;;;5044132;28;20049;-74
2023/06/06 02:06:12;;;;;;;4.50;4.05;;;;;;;;;;5052018;28;20036;-74
2023/06/06 02:08:39;;;;;;;9.50;3.80;;;;;;;;;;5035860;28;20036;-72
2023/06/06 02:11:06;;;;;;;10.07;4.53;;;;;;;;;;5052379;28;20048;-75
2023/06/06 02:13:32;;;;;;;4.55;4.10;;;;;;;;;;5059369;28;20050;-74
2023/06/06 02:15:59;;;;;;;6.55;4.00;;;;;;;;;;5036641;28;20525;-74
2023/06/06 02:18:26;;;;;;;4.70;3.70;;;;;;;;;;5056198;28;20053;-74
2023/06/06 02:21:15;;;;;;;5.20;4.03;;;;;;;;;;5039982;28;20040;-74
2023/06/06 02:23:41;;;;;;;3.60;3.33;;;;;;;;;;5037754;28;20055;-74
2023/06/06 02:26:07;;;;;;;7.80;3.60;;;;;;;;;;5055884;28;20049;-74
2023/06/06 02:28:33;;;;;;;4.97;3.90;;;;;;;;;;5054990;28;20420;-74
2023/06/06 02:30:58;;;;;;;6.80;3.83;;;;;;;;;;5019938;28;20115;-73
2023/06/06 02:33:25;;;;;;;5.35;3.28;;;;;;;;;;5052821;28;20142;-74
2023/06/06 02:35:52;;;;;;;4.38;4.07;;;;;;;;;;5035497;28;20041;-74
2023/06/06 02:38:18;;;;;;;4.35;3.97;;;;;;;;;;5035665;28;20056;-74
2023/06/06 02:40:44;;;;;;;6.60;3.60;;;;;;;;;;5019600;28;20174;-75
2023/06/06 02:43:10;;;;;;;9.35;3.85;;;;;;;;;;5035500;28;20044;-74
2023/06/06 02:45:36;;;;;;;6.32;4.13;;;;;;;;;;5035634;28;20044;-74
2023/06/06 02:48:03;;;;;;;4.60;3.78;;;;;;;;;;5051379;28;20037;-74
2023/06/06 02:50:31;;;;;;;5.07;3.45;;;;;;;;;;5051609;28;20055;-77
2023/06/06 02:53:02;;;;;;;4.28;3.38;;;;;;;;;;5033563;28;20040;-74
2023/06/06 02:55:29;;;;;;;6.30;3.22;;;;;;;;;;5032431;28;20128;-75
2023/06/06 02:57:55;;;;;;;4.05;3.22;;;;;;;;;;5050315;28;20045;-75
2023/06/06 03:00:22;;;;;;;3.90;3.50;;;;;;;;;;5033082;28;20217;-75
2023/06/06 03:02:48;;;;;;;14.90;4.47;;;;;;;;;;5032570;28;20072;-75
2023/06/06 03:05:14;;;;;;;6.82;3.60;;;;;;;;;;5032146;28;20068;-74
2023/06/06 03:07:41;;;;;;;6.40;3.60;;;;;;;;;;5031883;28;20054;-75
2023/06/06 03:10:07;;;;;;;5.93;3.33;;;;;;;;;;5049835;28;20131;-74
2023/06/06 03:12:39;;;;;;;3.28;2.97;;;;;;;;;;5015928;28;20045;-77
2023/06/06 03:15:06;;;;;;;6.47;3.88;;;;;;;;;;5016596;28;20416;-75
2023/06/06 03:17:36;;;;;;;7.65;3.30;;;;;;;;;;5046075;28;20055;-76
2023/06/06 03:20:02;;;;;;;7.75;3.97;;;;;;;;;;5057966;28;20041;-76
2023/06/06 03:22:31;;;;;;;5.68;3.70;;;;;;;;;;5033042;28;20049;-77
2023/06/06 03:24:58;;;;;;;4.20;3.70;;;;;;;;;;5016622;28;20033;-77
2023/06/06 03:27:24;;;;;;;8.15;3.78;;;;;;;;;;5032009;28;20049;-77
2023/06/06 03:29:52;;;;;;;4.70;3.17;;;;;;;;;;5032225;28;20106;-76
2023/06/06 03:32:21;;;;;;;13.10;3.55;;;;;;;;;;5032154;28;20045;-77
2023/06/06 03:34:48;;;;;;;5.55;3.92;;;;;;;;;;5032066;28;20107;-78
2023/06/06 03:37:14;;;;;;;4.88;3.50;;;;;;;;;;5031877;28;20135;-78
2023/06/06 03:39:42;;;;;;;5.93;3.75;;;;;;;;;;5015387;28;20041;-77
2023/06/06 03:42:09;;;;;;;6.18;5.25;;;;;;;;;;5031840;28;20183;-79
2023/06/06 03:44:36;;;;;;;5.85;3.13;;;;;;;;;;5032901;28;20049;-77
2023/06/06 03:47:02;;;;;;;6.50;3.50;;;;;;;;;;5036025;28;20051;-77
2023/06/06 03:49:30;;;;;;;6.40;3.45;;;;;;;;;;5019085;28;20505;-78
2023/06/06 03:51:56;;;;;;;8.05;3.53;;;;;;;;;;5053886;28;20548;-77
2023/06/06 03:54:25;;;;;;;8.98;3.72;;;;;;;;;;5035404;28;20513;-77
2023/06/06 03:56:51;;;;;;;5.25;4.13;;;;;;;;;;5053560;28;20135;-76
2023/06/06 03:59:17;;;;;;;7.68;4.07;;;;;;;;;;5035698;28;20080;-77
2023/06/06 04:01:44;;;;;;;9.73;4.05;;;;;;;;;;5019622;28;20045;-77
2023/06/06 04:04:13;;;;;;;5.32;3.72;;;;;;;;;;5035872;28;20467;-79
2023/06/06 04:06:39;;;;;;;6.50;3.40;;;;;;;;;;5039048;28;20036;-77
2023/06/06 04:09:10;;;;;;;7.25;4.15;;;;;;;;;;5041033;28;20432;-76
2023/06/06 04:11:37;;;;;;;11.17;4.43;;;;;;;;;;5044038;28;20029;-78
2023/06/06 04:14:04;;;;;;;8.73;3.78;;;;;;;;;;5028604;28;20295;-77
2023/06/06 04:16:30;;;;;;;5.53;3.47;;;;;;;;;;5028069;28;20140;-77
2023/06/06 04:18:57;;;;;;;4.07;3.00;;;;;;;;;;5062329;28;20040;-75
2023/06/06 04:21:23;;;;;;;4.20;2.97;;;;;;;;;;5070998;28;20063;-77
2023/06/06 04:23:50;;;;;;;5.00;3.60;;;;;;;;;;5055288;28;20044;-77
2023/06/06 04:26:23;;;;;;;3.38;2.85;;;;;;;;;;5052853;28;20037;-76
2023/06/06 04:28:52;;;;;;;3.15;2.72;;;;;;;;;;5052557;28;20044;-77
2023/06/06 04:31:23;;;;;;;6.18;2.85;;;;;;;;;;5061191;28;20084;-77
2023/06/06 04:33:53;;;;;;;3.03;2.50;;;;;;;;;;5041021;28;20044;-77
2023/06/06 04:36:21;;;;;;;2.50;2.30;;;;;;;;;;5058405;28;20133;-77
2023/06/06 04:38:49;;;;;;;3.08;2.20;;;;;;;;;;5041945;28;20057;-77
2023/06/06 04:41:20;;;;;;;4.57;2.17;;;;;;;;;;5039838;28;20045;-77
2023/06/06 04:43:49;;;;;;;2.20;2.00;;;;;;;;;;5056000;28;20501;-79
2023/06/06 04:46:21;;;;;;;4.35;2.08;;;;;;;;;;5037419;28;20061;-77
2023/06/06 04:48:54;;;;;;;2.72;2.35;;;;;;;;;;5038842;28;20426;-77
2023/06/06 04:51:21;;;;;;;2.53;2.22;;;;;;;;;;5038844;28;20483;-77
2023/06/06 04:53:50;;;;;;;2.30;2.08;;;;;;;;;;5039255;28;20139;-76
2023/06/06 04:56:17;;;;;;;6.17;2.50;;;;;;;;;;5055736;28;20033;-77
2023/06/06 04:58:45;;;;;;;2.30;2.10;;;;;;;;;;5057138;28;20309;-75
2023/06/06 05:01:12;;;;;;;2.30;2.17;;;;;;;;;;5040641;28;20136;-77
2023/06/06 05:03:39;;;;;;;3.42;1.70;;;;;;;;;;5039667;28;20056;-77
2023/06/06 05:06:06;;;;;;;4.25;2.40;;;;;;;;;;5056128;28;20047;-76
2023/06/06 05:08:32;;;;;;;5.53;2.20;;;;;;;;;;5050832;28;20036;-76
2023/06/06 05:10:58;;;;;;;3.28;1.90;;;;;;;;;;5063331;28;20045;-76
2023/06/06 05:13:24;;;;;;;1.90;1.80;;;;;;;;;;5052344;28;20051;-77
2023/06/06 05:15:50;;;;;;;6.25;2.17;;;;;;;;;;5051835;28;20044;-76
2023/06/06 05:18:18;;;;;;;5.38;1.73;;;;;;;;;;5033712;28;20444;-76
2023/06/06 05:20:45;;;;;;;1.83;1.73;;;;;;;;;;5052184;28;20028;-77
2023/06/06 05:23:12;;;;;;;3.08;1.70;;;;;;;;;;5000830;28;20106;-77
2023/06/06 05:25:38;;;;;;;2.00;1.80;;;;;;;;;;5051769;28;20037;-77
2023/06/06 05:28:04;;;;;;;6.43;4.88;;;;;;;;;;5051439;28;20087;-77
2023/06/06 05:30:30;;;;;;;2.47;1.83;;;;;;;;;;5033353;28;20065;-76
2023/06/06 05:32:56;;;;;;;2.25;1.90;;;;;;;;;;5033499;28;20045;-75
2023/06/06 05:35:22;;;;;;;2.97;2.03;;;;;;;;;;5051098;28;20447;-76
2023/06/06 05:37:49;;;;;;;2.03;1.70;;;;;;;;;;5051323;28;20064;-76
2023/06/06 05:40:15;;;;;;;3.90;1.80;;;;;;;;;;5051030;28;20095;-76
2023/06/06 05:42:41;;;;;;;3.58;1.70;;;;;;;;;;5017142;28;20036;-76
2023/06/06 05:45:07;;;;;;;2.03;1.70;;;;;;;;;;5033382;28;20114;-77
2023/06/06 05:47:34;;;;;;;1.73;1.63;;;;;;;;;;5033240;28;20044;-76
2023/06/06 05:50:00;;;;;;;2.13;1.60;;;;;;;;;;5033296;28;20090;-76
2023/06/06 05:52:26;;;;;;;1.92;1.83;;;;;;;;;;5050838;28;20143;-76
2023/06/06 05:54:57;;;;;;;1.35;1.35;;;;;;;;;;5050819;28;20037;-76
2023/06/06 05:57:23;;;;;;;2.47;1.63;;;;;;;;;;5050730;28;20433;-76
2023/06/06 05:59:49;;;;;;;1.90;1.63;;;;;;;;;;5050745;28;20072;-76
2023/06/06 06:02:16;;;;;;;2.85;1.67;;;;;;;;;;5050716;28;20097;-77
2023/06/06 06:04:42;;;;;;;1.70;1.60;;;;;;;;;;5050633;28;20044;-77
2023/06/06 06:07:09;;;;;;;3.97;1.80;;;;;;;;;;5049977;28;20127;-76
2023/06/06 06:09:35;;;;;;;1.35;1.35;;;;;;;;;;5050505;28;20391;-76
2023/06/06 06:12:01;;;;;;;2.08;1.80;;;;;;;;;;5050965;28;20178;-76
2023/06/06 06:14:27;;;;;;;1.65;1.55;;;;;;;;;;5050258;28;20043;-76
2023/06/06 06:16:53;;;;;;;5.63;1.58;;;;;;;;;;5050296;28;20060;-76
2023/06/06 06:19:19;;;;;;;3.50;1.80;;;;;;;;;;5050268;28;20052;-75
2023/06/06 06:21:46;;;;;;;1.90;1.80;;;;;;;;;;5050630;28;20048;-77
2023/06/06 06:24:12;;;;;;;4.80;1.50;;;;;;;;;;5050556;28;20143;-76
2023/06/06 06:26:38;;;;;;;1.92;1.60;;;;;;;;;;5050421;28;20134;-76
2023/06/06 06:29:04;;;;;;;2.47;1.80;;;;;;;;;;5032742;28;20041;-76
2023/06/06 06:31:30;;;;;;;2.65;1.80;;;;;;;;;;5032465;28;20041;-77
2023/06/06 06:33:57;;;;;;;1.73;1.63;;;;;;;;;;5050545;28;20068;-77
2023/06/06 06:36:24;;;;;;;2.55;1.88;;;;;;;;;;5050158;28;20049;-77
2023/06/06 06:38:50;;;;;;;3.95;1.75;;;;;;;;;;5050310;28;20045;-78
2023/06/06 06:41:16;;;;;;;1.85;1.58;;;;;;;;;;5050705;28;20069;-76
2023/06/06 06:43:43;;;;;;;5.20;1.98;;;;;;;;;;5050992;28;20535;-76
2023/06/06 06:46:15;;;;;;;1.58;1.48;;;;;;;;;;5050982;28;20091;-76
2023/06/06 06:48:45;;;;;;;2.10;1.88;;;;;;;;;;5032677;28;20144;-77
2023/06/06 06:51:13;;;;;;;2.38;1.73;;;;;;;;;;5050146;28;20040;-76
2023/06/06 06:53:39;;;;;;;1.98;1.80;;;;;;;;;;5050162;28;20091;-76
2023/06/06 06:56:06;;;;;;;2.75;1.50;;;;;;;;;;5051283;28;20535;-76
2023/06/06 06:58:35;;;;;;;2.10;1.90;;;;;;;;;;5048497;28;20065;-78
2023/06/06 07:01:02;;;;;;;4.47;1.90;;;;;;;;;;5052140;28;20036;-77
2023/06/06 07:03:29;;;;;;;1.58;1.48;;;;;;;;;;5050097;28;20425;-76
2023/06/06 07:05:55;;;;;;;5.32;1.50;;;;;;;;;;5050252;28;20536;-77
2023/06/06 07:08:22;;;;;;;2.25;2.05;;;;;;;;;;5049786;28;20068;-77
2023/06/06 07:10:48;;;;;;;1.70;1.60;;;;;;;;;;5050008;28;20535;-77
2023/06/06 07:13:14;;;;;;;3.28;1.52;;;;;;;;;;5050172;28;20032;-77
2023/06/06 07:15:40;;;;;;;2.45;1.58;;;;;;;;;;5031610;28;20053;-77
2023/06/06 07:18:07;;;;;;;1.90;1.58;;;;;;;;;;5050159;28;20060;-77
2023/06/06 07:20:33;;;;;;;2.13;1.58;;;;;;;;;;5035958;28;20037;-77
2023/06/06 07:22:59;;;;;;;3.85;1.80;;;;;;;;;;5036145;28;20055;-76
2023/06/06 07:25:25;;;;;;;3.15;1.77;;;;;;;;;;5053582;28;20535;-77
2023/06/06 07:27:52;;;;;;;1.67;1.58;;;;;;;;;;5035900;28;20049;-76
2023/06/06 07:30:18;;;;;;;3.00;1.85;;;;;;;;;;5019555;28;20417;-76
2023/06/06 07:32:46;;;;;;;4.55;1.80;;;;;;;;;;5036298;28;20099;-76
2023/06/06 07:35:13;;;;;;;3.65;2.03;;;;;;;;;;5053700;28;20497;-76
2023/06/06 07:37:39;;;;;;;2.38;2.17;;;;;;;;;;5053256;28;20509;-77
2023/06/06 07:40:07;;;;;;;4.45;2.80;;;;;;;;;;5053609;28;20041;-77
2023/06/06 07:42:34;;;;;;;5.35;2.95;;;;;;;;;;5035858;28;20159;-77
2023/06/06 07:45:00;;;;;;;8.13;3.28;;;;;;;;;;5018974;28;20037;-77
2023/06/06 07:47:26;;;;;;;4.47;4.03;;;;;;;;;;5035690;28;20132;-77
2023/06/06 07:49:52;;;;;;;7.80;5.22;;;;;;;;;;5053497;28;20044;-78
2023/06/06 07:52:18;;;;;;;7.13;5.25;;;;;;;;;;5035516;28;20421;-79
2023/06/06 07:54:44;;;;;;;4.95;2.97;;;;;;;;;;5052760;28;20033;-77
2023/06/06 07:57:11;;;;;;;2.45;1.80;;;;;;;;;;5053305;28;20095;-78
2023/06/06 07:59:38;;;;;;;5.00;1.90;;;;;;;;;;5052979;28;20171;-78
2023/06/06 08:02:04;;;;;;;1.50;1.45;;;;;;;;;;5053291;28;20052;-79
2023/06/06 08:04:30;;;;;;;3.85;2.03;;;;;;;;;;5018852;28;20053;-77
2023/06/06 08:06:56;;;;;;;4.20;1.60;;;;;;;;;;5035384;28;20048;-78
2023/06/06 08:09:22;;;;;;;1.70;1.60;;;;;;;;;;5018815;28;20049;-77
2023/06/06 08:11:48;;;;;;;2.35;1.90;;;;;;;;;;5053444;28;20052;-77
2023/06/06 08:14:14;;;;;;;1.95;1.85;;;;;;;;;;5054001;28;20041;-78
2023/06/06 08:16:41;;;;;;;4.40;1.70;;;;;;;;;;5055195;28;20048;-78
2023/06/06 08:19:07;;;;;;;4.07;2.00;;;;;;;;;;5065106;28;20108;-76
2023/06/06 08:21:33;;;;;;;4.68;1.88;;;;;;;;;;5055429;28;20111;-76
2023/06/06 08:24:01;;;;;;;2.25;2.08;;;;;;;;;;5053830;28;20068;-77
2023/06/06 08:26:28;;;;;;;2.30;2.15;;;;;;;;;;5052612;28;20044;-77
2023/06/06 08:28:54;;;;;;;1.77;1.67;;;;;;;;;;5052796;28;20036;-77
2023/06/06 08:31:23;;;;;;;1.75;1.65;;;;;;;;;;5034166;28;20087;-77
2023/06/06 08:33:49;;;;;;;3.22;1.80;;;;;;;;;;5034697;28;20033;-77
2023/06/06 08:36:16;;;;;;;4.78;1.90;;;;;;;;;;5034993;28;20037;-77
2023/06/06 08:38:43;;;;;;;2.10;1.95;;;;;;;;;;5052053;28;20052;-76
2023/06/06 08:41:09;;;;;;;4.43;1.83;;;;;;;;;;5018097;28;20040;-77
2023/06/06 08:43:36;;;;;;;3.53;1.80;;;;;;;;;;5052156;28;20535;-77
2023/06/06 08:46:03;;;;;;;1.77;1.67;;;;;;;;;;5035449;28;20102;-76
2023/06/06 08:48:30;;;;;;;2.45;2.00;;;;;;;;;;5048901;28;20053;-76
2023/06/06 08:50:56;;;;;;;1.90;1.80;;;;;;;;;;5053703;28;20757;-77
2023/06/06 08:53:22;;;;;;;6.43;2.00;;;;;;;;;;5018310;28;20048;-77
2023/06/06 08:55:48;;;;;;;2.22;1.77;;;;;;;;;;5051893;28;20041;-77
2023/06/06 08:58:14;;;;;;;2.67;2.20;;;;;;;;;;5052171;28;20057;-77
2023/06/06 09:00:40;;;;;;;1.90;1.80;;;;;;;;;;5034158;28;20041;-77
2023/06/06 09:03:06;;;;;;;3.85;1.90;;;;;;;;;;5034175;28;20052;-77
2023/06/06 09:05:32;;;;;;;3.63;1.90;;;;;;;;;;5033762;28;20032;-77
2023/06/06 09:07:59;;;;;;;6.28;2.33;;;;;;;;;;5034694;28;20049;-78
2023/06/06 09:10:25;;;;;;;2.00;1.90;;;;;;;;;;5017528;28;20044;-77
2023/06/06 09:12:51;;;;;;;4.30;2.10;;;;;;;;;;5051750;28;20485;-77
2023/06/06 09:15:17;;;;;;;1.95;1.85;;;;;;;;;;5051472;28;20555;-77
2023/06/06 09:17:43;;;;;;;2.50;2.05;;;;;;;;;;5051280;28;20107;-76
2023/06/06 09:20:10;;;;;;;1.88;1.77;;;;;;;;;;5051569;28;20033;-76
2023/06/06 09:22:39;;;;;;;3.88;1.98;;;;;;;;;;5033433;28;20052;-76
2023/06/06 09:25:06;;;;;;;2.40;1.75;;;;;;;;;;5017063;28;20132;-77
2023/06/06 09:27:32;;;;;;;3.67;1.80;;;;;;;;;;5051259;28;20053;-75
2023/06/06 09:29:58;;;;;;;2.35;1.83;;;;;;;;;;5051270;28;20036;-77
2023/06/06 09:32:28;;;;;;;2.00;1.90;;;;;;;;;;5051255;28;20045;-78
2023/06/06 09:34:55;;;;;;;2.08;1.95;;;;;;;;;;5051110;28;20048;-77
2023/06/06 09:37:21;;;;;;;2.20;2.00;;;;;;;;;;5033396;28;20053;-75
2023/06/06 09:40:06;;;;;;;2.08;1.98;;;;;;;;;;5051009;28;20037;-76
2023/06/06 09:42:32;;;;;;;2.28;2.08;;;;;;;;;;5051200;28;20037;-77
2023/06/06 09:44:58;;;;;;;4.07;1.88;;;;;;;;;;5051286;28;20539;-77
2023/06/06 09:47:24;;;;;;;1.85;1.75;;;;;;;;;;5051374;28;20083;-78
2023/06/06 09:49:54;;;;;;;2.40;1.95;;;;;;;;;;5050576;28;20119;-76
2023/06/06 09:52:20;;;;;;;2.40;2.30;;;;;;;;;;5050977;28;20079;-76
2023/06/06 09:54:46;;;;;;;2.90;2.70;;;;;;;;;;5032822;28;20068;-78
2023/06/06 09:57:13;;;;;;;3.70;1.95;;;;;;;;;;5050952;28;20198;-76
2023/06/06 09:59:40;;;;;;;2.20;2.10;;;;;;;;;;5050568;28;20102;-76
2023/06/06 10:02:06;;;;;;;2.80;2.33;;;;;;;;;;5033159;28;20125;-79
2023/06/06 10:04:32;;;;;;;1.88;1.50;;;;;;;;;;5032685;28;20565;-76
2023/06/06 10:06:59;;;;;;;1.90;1.70;;;;;;;;;;5050890;28;20044;-76
2023/06/06 10:09:26;;;;;;;4.88;1.95;;;;;;;;;;5032995;28;20190;-76
2023/06/06 10:11:52;;;;;;;2.92;1.83;;;;;;;;;;5050439;28;20055;-76
2023/06/06 10:14:18;;;;;;;2.53;1.85;;;;;;;;;;5016344;28;20045;-77
2023/06/06 10:16:44;;;;;;;2.63;2.20;;;;;;;;;;5050003;28;20052;-77
2023/06/06 10:19:12;;;;;;;2.10;2.00;;;;;;;;;;5050329;28;20132;-77
2023/06/06 10:21:38;;;;;;;2.05;1.95;;;;;;;;;;5050014;28;20122;-76
2023/06/06 10:24:05;;;;;;;2.22;2.13;;;;;;;;;;5050268;28;20505;-77
2023/06/06 10:26:48;;;;;;;5.05;1.88;;;;;;;;;;5032540;28;20134;-77
2023/06/06 10:29:30;;;;;;;2.78;2.10;;;;;;;;;;5016225;28;20044;-78
2023/06/06 10:31:57;;;;;;;2.00;1.90;;;;;;;;;;5050184;28;20159;-76
2023/06/06 10:34:24;;;;;;;2.10;1.92;;;;;;;;;;5032786;28;20060;-78
2023/06/06 10:36:51;;;;;;;5.22;2.08;;;;;;;;;;5060962;28;20568;-75
2023/06/06 10:39:20;;;;;;;2.13;1.90;;;;;;;;;;5037382;28;20052;-77
2023/06/06 10:41:51;;;;;;;2.45;2.15;;;;;;;;;;5049874;28;20640;-76
2023/06/06 10:44:26;;;;;;;3.08;2.20;;;;;;;;;;5032007;28;20148;-77
2023/06/06 10:47:15;;;;;;;3.28;2.03;;;;;;;;;;5032009;28;20045;-76
2023/06/06 10:49:43;;;;;;;4.05;1.98;;;;;;;;;;5049580;28;20136;-76
2023/06/06 10:52:10;;;;;;;3.17;2.30;;;;;;;;;;5032317;28;20052;-76
2023/06/06 10:54:35;;;;;;;2.97;2.25;;;;;;;;;;5031484;28;20041;-78
2023/06/06 10:57:02;;;;;;;2.25;2.15;;;;;;;;;;5049787;28;20540;-76
2023/06/06 10:59:28;;;;;;;3.20;2.20;;;;;;;;;;5032029;28;20440;-77
2023/06/06 11:01:55;;;;;;;2.95;2.42;;;;;;;;;;5031768;28;20071;-77
2023/06/06 11:04:23;;;;;;;2.10;1.98;;;;;;;;;;5049849;28;20041;-77
2023/06/06 11:06:52;;;;;;;3.35;2.15;;;;;;;;;;5015410;28;20048;-77
2023/06/06 11:09:22;;;;;;;2.10;1.90;;;;;;;;;;5049822;28;20512;-77
2023/06/06 11:12:07;;;;;;;4.47;2.80;;;;;;;;;;5049402;28;20448;-76
2023/06/06 11:14:33;;;;;;;3.55;2.38;;;;;;;;;;5031929;28;20106;-76
2023/06/06 11:17:00;;;;;;;2.20;2.00;;;;;;;;;;5029285;28;20045;-77
2023/06/06 11:19:32;;;;;;;2.70;2.33;;;;;;;;;;5039109;28;20053;-76
2023/06/06 11:21:59;;;;;;;3.97;2.08;;;;;;;;;;5040160;28;20584;-74
2023/06/06 11:24:30;;;;;;;2.25;2.13;;;;;;;;;;5035133;28;20041;-76
2023/06/06 11:26:56;;;;;;;3.45;2.20;;;;;;;;;;5012154;28;20073;-76
2023/06/06 11:29:22;;;;;;;1.85;1.75;;;;;;;;;;5029722;28;20124;-77
2023/06/06 11:31:49;;;;;;;3.42;1.80;;;;;;;;;;5011895;28;20569;-77
2023/06/06 11:34:15;;;;;;;3.20;3.00;;;;;;;;;;5029676;28;20041;-77
2023/06/06 11:36:42;;;;;;;6.28;1.90;;;;;;;;;;5029346;28;20071;-76
2023/06/06 11:39:11;;;;;;;2.10;2.00;;;;;;;;;;5029501;28;20061;-77
2023/06/06 11:41:41;;;;;;;2.58;1.92;;;;;;;;;;5029303;28;20071;-77
2023/06/06 11:44:07;;;;;;;3.05;1.85;;;;;;;;;;5029920;28;20104;-76
2023/06/06 11:46:43;;;;;;;2.55;2.10;;;;;;;;;;5029651;28;20041;-77
2023/06/06 11:49:09;;;;;;;1.85;1.75;;;;;;;;;;5012226;28;20052;-77
2023/06/06 11:51:36;;;;;;;2.35;2.15;;;;;;;;;;5029289;28;20422;-77
2023/06/06 11:54:11;;;;;;;2.45;2.25;;;;;;;;;;5029587;28;20046;-77
2023/06/06 11:56:37;;;;;;;2.40;2.20;;;;;;;;;;5011541;28;20042;-77
2023/06/06 11:59:03;;;;;;;2.80;2.30;;;;;;;;;;5011802;28;20042;-77
2023/06/06 12:01:29;;;;;;;2.28;2.08;;;;;;;;;;5011762;28;20103;-77
2023/06/06 12:03:55;;;;;;;3.40;1.88;;;;;;;;;;5029486;28;20058;-77
2023/06/06 12:06:22;;;;;;;2.70;2.00;;;;;;;;;;5031719;28;20418;-77
2023/06/06 12:08:48;;;;;;;3.58;2.25;;;;;;;;;;5015523;28;20041;-77
2023/06/06 12:11:21;;;;;;;2.60;2.20;;;;;;;;;;5033398;28;20044;-76
2023/06/06 12:13:47;;;;;;;2.13;2.00;;;;;;;;;;5032917;28;20088;-76
2023/06/06 12:16:19;;;;;;;5.18;1.77;;;;;;;;;;5045342;28;20453;-76
2023/06/06 12:18:46;;;;;;;3.72;2.22;;;;;;;;;;5052733;28;20539;-76
2023/06/06 12:21:15;;;;;;;2.65;1.98;;;;;;;;;;5052823;28;20238;-77
2023/06/06 12:23:43;;;;;;;4.40;1.90;;;;;;;;;;5037087;28;20051;-77
2023/06/06 12:26:11;;;;;;;2.17;1.95;;;;;;;;;;5067325;28;20111;-77
2023/06/06 12:28:57;;;;;;;3.67;2.20;;;;;;;;;;5002514;28;20504;-77
2023/06/06 12:31:27;;;;;;;1.95;1.85;;;;;;;;;;5018705;28;20330;-77
2023/06/06 12:33:56;;;;;;;2.35;2.20;;;;;;;;;;5018114;28;20041;-78
2023/06/06 12:36:24;;;;;;;2.90;2.20;;;;;;;;;;5052566;28;20084;-77
2023/06/06 12:39:00;;;;;;;2.33;2.20;;;;;;;;;;5034287;28;20052;-77
2023/06/06 12:41:41;;;;;;;2.58;2.38;;;;;;;;;;5052447;28;20051;-77
2023/06/06 12:44:10;;;;;;;3.80;2.20;;;;;;;;;;5035019;28;20041;-78
2023/06/06 12:46:38;;;;;;;2.00;1.90;;;;;;;;;;5052246;28;20129;-76
2023/06/06 12:49:04;;;;;;;2.20;1.90;;;;;;;;;;5034429;28;20048;-76
2023/06/06 12:51:29;;;;;;;2.13;1.98;;;;;;;;;;5052111;28;20540;-77
2023/06/06 12:53:55;;;;;;;3.15;2.33;;;;;;;;;;5051622;28;20056;-77
2023/06/06 12:56:22;;;;;;;2.83;2.60;;;;;;;;;;5046453;28;20067;-77
2023/06/06 12:58:48;;;;;;;2.83;2.22;;;;;;;;;;5012498;28;20053;-77
2023/06/06 13:01:14;;;;;;;2.25;1.90;;;;;;;;;;4997545;28;20048;-77
2023/06/06 13:03:41;;;;;;;5.18;4.05;;;;;;;;;;5031428;28;20046;-78
2023/06/06 13:06:07;;;;;;;2.25;2.10;;;;;;;;;;4997099;28;20389;-78
2023/06/06 13:08:33;;;;;;;3.13;2.13;;;;;;;;;;5031154;28;20029;-76
2023/06/06 13:10:59;;;;;;;8.43;1.98;;;;;;;;;;5030268;28;20033;-76
2023/06/06 13:13:25;;;;;;;2.63;1.90;;;;;;;;;;5012478;28;20068;-76
2023/06/06 13:15:51;;;;;;;2.95;2.08;;;;;;;;;;5027081;28;20551;-76
2023/06/06 13:18:17;;;;;;;5.90;2.50;;;;;;;;;;5030181;28;20038;-77
2023/06/06 13:20:43;;;;;;;2.67;2.03;;;;;;;;;;5030218;28;20048;-75
2023/06/06 13:23:09;;;;;;;5.28;2.65;;;;;;;;;;5030706;28;20605;-75
2023/06/06 13:25:35;;;;;;;5.45;2.25;;;;;;;;;;5030561;28;20022;-75
2023/06/06 13:28:02;;;;;;;2.40;2.20;;;;;;;;;;5029394;28;20045;-75
2023/06/06 13:30:29;;;;;;;2.40;2.20;;;;;;;;;;5012701;28;20045;-76
2023/06/06 13:32:55;;;;;;;6.10;2.33;;;;;;;;;;5031007;28;20142;-75
2023/06/06 13:35:21;;;;;;;3.08;2.47;;;;;;;;;;5031466;28;20041;-76
2023/06/06 13:37:47;;;;;;;2.47;2.30;;;;;;;;;;5013376;28;20065;-76
2023/06/06 13:40:13;;;;;;;1.98;1.75;;;;;;;;;;5031648;28;20399;-75
2023/06/06 13:42:39;;;;;;;2.10;2.00;;;;;;;;;;5030406;28;20041;-74
2023/06/06 13:45:06;;;;;;;2.22;2.13;;;;;;;;;;5030980;28;20071;-75
2023/06/06 13:47:32;;;;;;;2.33;1.70;;;;;;;;;;5031654;28;20144;-76
2023/06/06 13:49:58;;;;;;;3.50;2.05;;;;;;;;;;5030891;28;20099;-76
2023/06/06 13:52:26;;;;;;;2.40;1.70;;;;;;;;;;5030078;28;20095;-76
2023/06/06 13:54:52;;;;;;;2.22;2.03;;;;;;;;;;5013070;28;20116;-77
2023/06/06 13:57:18;;;;;;;5.25;2.53;;;;;;;;;;5029925;28;20494;-76
2023/06/06 13:59:44;;;;;;;2.40;2.15;;;;;;;;;;5030869;28;20041;-76
2023/06/06 14:02:10;;;;;;;3.40;2.40;;;;;;;;;;5030895;28;20049;-76
2023/06/06 14:04:36;;;;;;;5.10;2.50;;;;;;;;;;5031145;28;20045;-75
2023/06/06 14:07:02;;;;;;;2.50;2.30;;;;;;;;;;5030848;28;20585;-75
2023/06/06 14:09:29;;;;;;;3.60;2.53;;;;;;;;;;5013376;28;20037;-75
2023/06/06 14:11:58;;;;;;;3.40;2.63;;;;;;;;;;5017575;28;20135;-75
2023/06/06 14:14:24;;;;;;;4.43;2.10;;;;;;;;;;5018906;28;20059;-76
2023/06/06 14:16:50;;;;;;;8.30;2.28;;;;;;;;;;5035062;28;20429;-75
2023/06/06 14:19:34;;;;;;;3.42;2.33;;;;;;;;;;5024729;28;20037;-75
2023/06/06 14:25:05;;;;;;;2.38;2.17;;;;;;;;;;4968419;28;20037;-75
2023/06/06 14:27:31;;;;;;;3.65;2.10;;;;;;;;;;5012817;28;20050;-76
2023/06/06 14:29:57;;;;;;;2.15;2.05;;;;;;;;;;5030093;28;20068;-77
2023/06/06 14:32:30;;;;;;;2.65;2.05;;;;;;;;;;5013196;28;20132;-76
2023/06/06 14:35:04;;;;;;;5.55;2.25;;;;;;;;;;5030017;28;20048;-76
2023/06/06 14:37:31;;;;;;;2.58;2.38;;;;;;;;;;5012797;28;20052;-75
2023/06/06 14:39:58;;;;;;;2.13;1.92;;;;;;;;;;5030120;28;20124;-76
2023/06/06 14:42:24;;;;;;;6.55;2.22;;;;;;;;;;5012593;28;20041;-75
2023/06/06 14:44:52;;;;;;;2.63;2.42;;;;;;;;;;5029739;28;20034;-75